الصفحة الرئيسية
METAR-TAF:

METAR-TAF

مطار :

فولوس, اليونان

دائرة عرض: 39-13N, خط طول: 022-48E, ارتفاع: 25 متر

مراقبة الطقس الحالي

تاريخ ووقت الإصدار 43 دقيقة قبل الساعة 04:50UTC
ريح 6 عقدة من الشرق
درجة الحرارة 15°درجة مئوية
الرطوبة 94%
ضغط 1019 hPa
الرؤية 10 كم أو أكثر
غيوم قليلة على ارتفاع 1200 قدم
غيوم مفككة على ارتفاع 2500 قدم
غيوم مفككة على ارتفاع 7000 قدم

METAR: LGBL 290450Z 08006KT 9999 FEW012 BKN025 BKN070 15/14 Q1019

زمن: 07:33 (05:33 UTC)

توقعات

تاريخ ووقت الإصدار 3ساعات و 33 دقيقة قبل الساعة 02:00UTC
التوقعات صالحة من29 الساعة 03 UTC إلى 29 الساعة 12 UTC
ريح 12 عقدة من الشرق
الرؤية 10 كم أو أكثر
غيوم قليلة على ارتفاع 1200 قدم
غيوم مفككة على ارتفاع 2500 قدم
غيوم مفككة على ارتفاع 7000 قدم
مؤقت
من 29 الساعة 09 UTC إلى 29 الساعة 12 UTC
ريح 12 عقدة من الشرق تتزايد حتى 22 عقدة

TAF: LGBL 290200Z 2903/2912 10012KT 9999 FEW012 BKN025 BKN070 TEMPO 2909/2912 10012G22KT

أرصاد الطقس والتوقعات من أكثر من 4000 مطار (تقارير الطقس للمطار METAR والتنبؤ بالطقس بالمطارTAF).

المحطات المتاحة هي النقط الصفراء والحمراء على الخريطة.

حرك المؤشر فوق النقطة لمعرفة اسم المحطة.

ثم انقر لمعرفة أرصاد وتوقعات الطقس.

لتغيير الخارطة: اضغط على الأزرار الخضراء مع رمز الصليب الأسود للتكبير. على الزر الأخضر مع شرطة للتصغير، أو على الأسهم الخضراء للخرائط المجاورة.


METAR-TAF: